sensor_id;sensor_type;location;lat;lon;timestamp;temperature;humidity
58554;DHT22;48119;53.218;6.576;2022-11-15T00:01:46;10.90;99.90
58554;DHT22;48119;53.218;6.576;2022-11-15T00:04:12;10.90;99.90
58554;DHT22;48119;53.218;6.576;2022-11-15T00:06:37;10.90;99.90
58554;DHT22;48119;53.218;6.576;2022-11-15T00:09:03;10.90;99.90
58554;DHT22;48119;53.218;6.576;2022-11-15T00:11:29;10.90;99.90
58554;DHT22;48119;53.218;6.576;2022-11-15T00:13:56;10.90;99.90
58554;DHT22;48119;53.218;6.576;2022-11-15T00:16:22;10.90;99.90
58554;DHT22;48119;53.218;6.576;2022-11-15T00:18:48;10.90;99.90
58554;DHT22;48119;53.218;6.576;2022-11-15T00:21:14;10.90;99.90
58554;DHT22;48119;53.218;6.576;2022-11-15T00:23:41;10.90;99.90
58554;DHT22;48119;53.218;6.576;2022-11-15T00:26:07;10.90;99.90
58554;DHT22;48119;53.218;6.576;2022-11-15T00:28:36;10.90;99.90
58554;DHT22;48119;53.218;6.576;2022-11-15T00:31:04;10.90;99.90
58554;DHT22;48119;53.218;6.576;2022-11-15T00:33:30;10.80;99.90
58554;DHT22;48119;53.218;6.576;2022-11-15T00:36:01;10.80;99.90
58554;DHT22;48119;53.218;6.576;2022-11-15T00:38:33;10.80;99.90
58554;DHT22;48119;53.218;6.576;2022-11-15T00:41:00;10.80;99.90
58554;DHT22;48119;53.218;6.576;2022-11-15T00:43:26;10.80;99.90
58554;DHT22;48119;53.218;6.576;2022-11-15T00:45:52;10.80;99.90
58554;DHT22;48119;53.218;6.576;2022-11-15T00:48:18;10.80;99.90
58554;DHT22;48119;53.218;6.576;2022-11-15T00:50:50;10.80;99.90
58554;DHT22;48119;53.218;6.576;2022-11-15T00:53:17;10.80;99.90
58554;DHT22;48119;53.218;6.576;2022-11-15T00:55:43;10.80;99.90
58554;DHT22;48119;53.218;6.576;2022-11-15T00:58:09;10.70;99.90
58554;DHT22;48119;53.218;6.576;2022-11-15T01:00:35;10.70;99.90
58554;DHT22;48119;53.218;6.576;2022-11-15T01:03:01;10.70;99.90
58554;DHT22;48119;53.218;6.576;2022-11-15T01:05:27;10.80;99.90
58554;DHT22;48119;53.218;6.576;2022-11-15T01:07:56;10.70;99.90
58554;DHT22;48119;53.218;6.576;2022-11-15T01:10:23;10.80;99.90
58554;DHT22;48119;53.218;6.576;2022-11-15T01:12:49;10.70;99.90
58554;DHT22;48119;53.218;6.576;2022-11-15T01:15:15;10.80;99.90
58554;DHT22;48119;53.218;6.576;2022-11-15T01:17:41;10.70;99.90
58554;DHT22;48119;53.218;6.576;2022-11-15T01:20:07;10.70;99.90
58554;DHT22;48119;53.218;6.576;2022-11-15T01:22:33;10.80;99.90
58554;DHT22;48119;53.218;6.576;2022-11-15T01:24:59;10.70;99.90
58554;DHT22;48119;53.218;6.576;2022-11-15T01:27:24;10.80;99.90
58554;DHT22;48119;53.218;6.576;2022-11-15T01:29:50;10.80;99.90
58554;DHT22;48119;53.218;6.576;2022-11-15T01:32:16;10.70;99.90
58554;DHT22;48119;53.218;6.576;2022-11-15T01:34:42;10.70;99.90
58554;DHT22;48119;53.218;6.576;2022-11-15T01:37:07;10.70;99.90
58554;DHT22;48119;53.218;6.576;2022-11-15T01:39:33;10.70;99.90
58554;DHT22;48119;53.218;6.576;2022-11-15T01:41:59;10.70;99.90
58554;DHT22;48119;53.218;6.576;2022-11-15T01:47:08;10.70;99.90
58554;DHT22;48119;53.218;6.576;2022-11-15T01:49:38;10.80;99.90
58554;DHT22;48119;53.218;6.576;2022-11-15T01:52:07;10.80;99.90
58554;DHT22;48119;53.218;6.576;2022-11-15T01:54:34;10.80;99.90
58554;DHT22;48119;53.218;6.576;2022-11-15T01:57:03;10.80;99.90
58554;DHT22;48119;53.218;6.576;2022-11-15T01:59:30;10.80;99.90
58554;DHT22;48119;53.218;6.576;2022-11-15T02:01:56;10.80;99.90
58554;DHT22;48119;53.218;6.576;2022-11-15T02:04:34;10.80;99.90
58554;DHT22;48119;53.218;6.576;2022-11-15T02:07:03;10.80;99.90
58554;DHT22;48119;53.218;6.576;2022-11-15T02:09:29;10.80;99.90
58554;DHT22;48119;53.218;6.576;2022-11-15T02:11:56;10.80;99.90
58554;DHT22;48119;53.218;6.576;2022-11-15T02:14:23;10.80;99.90
58554;DHT22;48119;53.218;6.576;2022-11-15T02:41:10;10.80;99.90
58554;DHT22;48119;53.218;6.576;2022-11-15T02:43:52;10.80;99.90
58554;DHT22;48119;53.218;6.576;2022-11-15T02:46:31;10.80;99.90
58554;DHT22;48119;53.218;6.576;2022-11-15T02:49:17;10.80;99.90
58554;DHT22;48119;53.218;6.576;2022-11-15T02:51:45;10.80;99.90
58554;DHT22;48119;53.218;6.576;2022-11-15T02:54:20;10.90;99.90
58554;DHT22;48119;53.218;6.576;2022-11-15T02:56:48;10.80;99.90
58554;DHT22;48119;53.218;6.576;2022-11-15T03:07:32;10.90;99.90
58554;DHT22;48119;53.218;6.576;2022-11-15T03:10:10;10.80;99.90
58554;DHT22;48119;53.218;6.576;2022-11-15T03:15:18;10.80;99.90
58554;DHT22;48119;53.218;6.576;2022-11-15T03:18:16;10.80;99.90
58554;DHT22;48119;53.218;6.576;2022-11-15T03:20:46;10.80;99.90
58554;DHT22;48119;53.218;6.576;2022-11-15T03:23:12;10.80;99.90
58554;DHT22;48119;53.218;6.576;2022-11-15T03:25:41;10.80;99.90
58554;DHT22;48119;53.218;6.576;2022-11-15T03:28:11;10.90;99.90
58554;DHT22;48119;53.218;6.576;2022-11-15T03:30:39;10.90;99.90
58554;DHT22;48119;53.218;6.576;2022-11-15T03:33:06;10.90;99.90
58554;DHT22;48119;53.218;6.576;2022-11-15T03:35:41;10.90;99.90
58554;DHT22;48119;53.218;6.576;2022-11-15T03:38:19;10.80;99.90
58554;DHT22;48119;53.218;6.576;2022-11-15T03:41:01;10.90;99.90
58554;DHT22;48119;53.218;6.576;2022-11-15T03:43:49;10.90;99.90
58554;DHT22;48119;53.218;6.576;2022-11-15T03:46:28;10.90;99.90
58554;DHT22;48119;53.218;6.576;2022-11-15T03:49:10;10.90;99.90
58554;DHT22;48119;53.218;6.576;2022-11-15T03:51:37;10.90;99.90
58554;DHT22;48119;53.218;6.576;2022-11-15T03:54:04;10.90;99.90
58554;DHT22;48119;53.218;6.576;2022-11-15T03:56:30;10.90;99.90
58554;DHT22;48119;53.218;6.576;2022-11-15T03:58:55;10.90;99.90
58554;DHT22;48119;53.218;6.576;2022-11-15T04:01:21;10.90;99.90
58554;DHT22;48119;53.218;6.576;2022-11-15T04:03:47;10.90;99.90
58554;DHT22;48119;53.218;6.576;2022-11-15T04:06:13;10.90;99.90
58554;DHT22;48119;53.218;6.576;2022-11-15T04:08:39;10.90;99.90
58554;DHT22;48119;53.218;6.576;2022-11-15T04:11:04;10.90;99.90
58554;DHT22;48119;53.218;6.576;2022-11-15T04:13:30;10.90;99.90
58554;DHT22;48119;53.218;6.576;2022-11-15T04:15:56;10.90;99.90
58554;DHT22;48119;53.218;6.576;2022-11-15T04:18:21;10.90;99.90
58554;DHT22;48119;53.218;6.576;2022-11-15T04:20:47;10.90;99.90
58554;DHT22;48119;53.218;6.576;2022-11-15T04:23:31;10.90;99.90
58554;DHT22;48119;53.218;6.576;2022-11-15T04:26:26;10.90;99.90
58554;DHT22;48119;53.218;6.576;2022-11-15T04:28:52;10.90;99.90
58554;DHT22;48119;53.218;6.576;2022-11-15T04:31:36;11.00;99.90
58554;DHT22;48119;53.218;6.576;2022-11-15T04:34:02;10.90;99.90
58554;DHT22;48119;53.218;6.576;2022-11-15T04:36:27;11.00;99.90
58554;DHT22;48119;53.218;6.576;2022-11-15T04:39:11;11.00;99.90
58554;DHT22;48119;53.218;6.576;2022-11-15T04:41:37;11.00;99.90
58554;DHT22;48119;53.218;6.576;2022-11-15T04:44:03;11.00;99.90
58554;DHT22;48119;53.218;6.576;2022-11-15T04:46:28;11.00;99.90
58554;DHT22;48119;53.218;6.576;2022-11-15T04:48:54;11.00;99.90
58554;DHT22;48119;53.218;6.576;2022-11-15T04:51:20;11.00;99.90
58554;DHT22;48119;53.218;6.576;2022-11-15T04:53:46;11.00;99.90
58554;DHT22;48119;53.218;6.576;2022-11-15T04:56:11;11.00;99.90
58554;DHT22;48119;53.218;6.576;2022-11-15T04:58:37;11.00;99.90
58554;DHT22;48119;53.218;6.576;2022-11-15T05:01:21;11.00;99.90
58554;DHT22;48119;53.218;6.576;2022-11-15T05:03:47;11.00;99.90
58554;DHT22;48119;53.218;6.576;2022-11-15T05:06:31;11.00;99.90
58554;DHT22;48119;53.218;6.576;2022-11-15T05:08:57;11.00;99.90
58554;DHT22;48119;53.218;6.576;2022-11-15T05:11:23;11.00;99.90
58554;DHT22;48119;53.218;6.576;2022-11-15T05:13:49;11.00;99.90
58554;DHT22;48119;53.218;6.576;2022-11-15T05:16:15;11.00;99.90
58554;DHT22;48119;53.218;6.576;2022-11-15T05:18:41;11.00;99.90
58554;DHT22;48119;53.218;6.576;2022-11-15T05:21:09;11.10;99.90
58554;DHT22;48119;53.218;6.576;2022-11-15T05:23:35;11.00;99.90
58554;DHT22;48119;53.218;6.576;2022-11-15T05:26:03;11.10;99.90
58554;DHT22;48119;53.218;6.576;2022-11-15T05:28:29;11.10;99.90
58554;DHT22;48119;53.218;6.576;2022-11-15T05:33:28;11.10;99.90
58554;DHT22;48119;53.218;6.576;2022-11-15T05:36:31;11.10;99.90
58554;DHT22;48119;53.218;6.576;2022-11-15T05:38:57;11.10;99.90
58554;DHT22;48119;53.218;6.576;2022-11-15T05:41:30;11.10;99.90
58554;DHT22;48119;53.218;6.576;2022-11-15T05:43:57;11.10;99.90
58554;DHT22;48119;53.218;6.576;2022-11-15T05:46:23;11.10;99.90
58554;DHT22;48119;53.218;6.576;2022-11-15T05:48:50;11.10;99.90
58554;DHT22;48119;53.218;6.576;2022-11-15T05:51:18;11.20;99.90
58554;DHT22;48119;53.218;6.576;2022-11-15T05:53:46;11.10;99.90
58554;DHT22;48119;53.218;6.576;2022-11-15T05:56:12;11.20;99.90
58554;DHT22;48119;53.218;6.576;2022-11-15T05:58:38;11.20;99.90
58554;DHT22;48119;53.218;6.576;2022-11-15T06:01:05;11.10;99.90
58554;DHT22;48119;53.218;6.576;2022-11-15T06:03:30;11.20;99.90
58554;DHT22;48119;53.218;6.576;2022-11-15T06:05:57;11.20;99.90
58554;DHT22;48119;53.218;6.576;2022-11-15T06:08:22;11.20;99.90
58554;DHT22;48119;53.218;6.576;2022-11-15T06:10:48;11.20;99.90
58554;DHT22;48119;53.218;6.576;2022-11-15T06:13:14;11.20;99.90
58554;DHT22;48119;53.218;6.576;2022-11-15T06:15:39;11.30;99.90
58554;DHT22;48119;53.218;6.576;2022-11-15T06:18:08;11.30;99.90
58554;DHT22;48119;53.218;6.576;2022-11-15T06:20:33;11.30;99.90
58554;DHT22;48119;53.218;6.576;2022-11-15T06:23:00;11.30;99.90
58554;DHT22;48119;53.218;6.576;2022-11-15T06:25:27;11.30;99.90
58554;DHT22;48119;53.218;6.576;2022-11-15T06:27:55;11.40;99.90
58554;DHT22;48119;53.218;6.576;2022-11-15T06:30:22;11.40;99.90
58554;DHT22;48119;53.218;6.576;2022-11-15T06:32:48;11.40;99.90
58554;DHT22;48119;53.218;6.576;2022-11-15T06:35:14;11.40;99.90
58554;DHT22;48119;53.218;6.576;2022-11-15T06:37:40;11.40;99.90
58554;DHT22;48119;53.218;6.576;2022-11-15T06:40:08;11.50;99.90
58554;DHT22;48119;53.218;6.576;2022-11-15T06:42:34;11.50;99.90
58554;DHT22;48119;53.218;6.576;2022-11-15T06:45:00;11.50;99.90
58554;DHT22;48119;53.218;6.576;2022-11-15T06:47:26;11.60;99.90
58554;DHT22;48119;53.218;6.576;2022-11-15T06:49:51;11.60;99.90
58554;DHT22;48119;53.218;6.576;2022-11-15T06:52:17;11.60;99.90
58554;DHT22;48119;53.218;6.576;2022-11-15T06:54:47;11.60;99.90
58554;DHT22;48119;53.218;6.576;2022-11-15T06:57:12;11.60;99.90
58554;DHT22;48119;53.218;6.576;2022-11-15T06:59:38;11.60;99.90
58554;DHT22;48119;53.218;6.576;2022-11-15T07:02:04;11.60;99.90
58554;DHT22;48119;53.218;6.576;2022-11-15T07:04:30;11.70;99.90
58554;DHT22;48119;53.218;6.576;2022-11-15T07:06:55;11.70;99.90
58554;DHT22;48119;53.218;6.576;2022-11-15T07:09:21;11.70;99.90
58554;DHT22;48119;53.218;6.576;2022-11-15T07:11:47;11.70;99.90
58554;DHT22;48119;53.218;6.576;2022-11-15T07:14:13;11.80;99.90
58554;DHT22;48119;53.218;6.576;2022-11-15T07:16:41;11.80;99.90
58554;DHT22;48119;53.218;6.576;2022-11-15T07:19:08;11.70;99.90
58554;DHT22;48119;53.218;6.576;2022-11-15T07:21:34;11.80;99.90
58554;DHT22;48119;53.218;6.576;2022-11-15T07:24:00;11.90;99.90
58554;DHT22;48119;53.218;6.576;2022-11-15T07:26:25;11.90;99.90
58554;DHT22;48119;53.218;6.576;2022-11-15T07:28:51;11.90;99.90
58554;DHT22;48119;53.218;6.576;2022-11-15T07:31:20;11.90;99.90
58554;DHT22;48119;53.218;6.576;2022-11-15T07:33:48;11.90;99.90
58554;DHT22;48119;53.218;6.576;2022-11-15T07:36:16;11.90;99.90
58554;DHT22;48119;53.218;6.576;2022-11-15T07:38:41;12.00;99.90
58554;DHT22;48119;53.218;6.576;2022-11-15T07:41:07;11.90;99.90
58554;DHT22;48119;53.218;6.576;2022-11-15T07:43:33;11.90;99.90
58554;DHT22;48119;53.218;6.576;2022-11-15T07:46:07;12.00;99.90
58554;DHT22;48119;53.218;6.576;2022-11-15T07:48:36;12.00;99.90
58554;DHT22;48119;53.218;6.576;2022-11-15T07:51:02;12.00;99.90
58554;DHT22;48119;53.218;6.576;2022-11-15T07:53:28;12.00;99.90
58554;DHT22;48119;53.218;6.576;2022-11-15T07:55:54;12.00;99.90
58554;DHT22;48119;53.218;6.576;2022-11-15T07:58:19;12.00;99.90
58554;DHT22;48119;53.218;6.576;2022-11-15T08:00:45;12.10;99.90
58554;DHT22;48119;53.218;6.576;2022-11-15T08:03:13;12.10;99.90
58554;DHT22;48119;53.218;6.576;2022-11-15T08:05:40;12.10;99.90
58554;DHT22;48119;53.218;6.576;2022-11-15T08:08:07;12.10;99.90
58554;DHT22;48119;53.218;6.576;2022-11-15T08:10:37;12.10;99.90
58554;DHT22;48119;53.218;6.576;2022-11-15T08:13:08;12.20;99.90
58554;DHT22;48119;53.218;6.576;2022-11-15T08:15:35;12.10;99.90
58554;DHT22;48119;53.218;6.576;2022-11-15T08:18:04;12.20;99.90
58554;DHT22;48119;53.218;6.576;2022-11-15T08:20:31;12.10;99.90
58554;DHT22;48119;53.218;6.576;2022-11-15T08:23:01;12.20;99.90
58554;DHT22;48119;53.218;6.576;2022-11-15T08:25:29;12.30;99.90
58554;DHT22;48119;53.218;6.576;2022-11-15T08:27:58;12.20;99.90
58554;DHT22;48119;53.218;6.576;2022-11-15T08:30:24;12.20;99.90
58554;DHT22;48119;53.218;6.576;2022-11-15T08:32:51;12.20;99.90
58554;DHT22;48119;53.218;6.576;2022-11-15T08:35:18;12.30;99.90
58554;DHT22;48119;53.218;6.576;2022-11-15T08:37:44;12.30;99.90
58554;DHT22;48119;53.218;6.576;2022-11-15T08:40:10;12.30;99.90
58554;DHT22;48119;53.218;6.576;2022-11-15T08:42:36;12.30;99.90
58554;DHT22;48119;53.218;6.576;2022-11-15T08:45:03;12.30;99.90
58554;DHT22;48119;53.218;6.576;2022-11-15T08:47:29;12.30;99.90
58554;DHT22;48119;53.218;6.576;2022-11-15T08:49:57;12.40;99.90
58554;DHT22;48119;53.218;6.576;2022-11-15T08:52:23;12.40;99.90
58554;DHT22;48119;53.218;6.576;2022-11-15T08:54:51;12.40;99.90
58554;DHT22;48119;53.218;6.576;2022-11-15T08:57:19;12.40;99.90
58554;DHT22;48119;53.218;6.576;2022-11-15T08:59:45;12.40;99.90
58554;DHT22;48119;53.218;6.576;2022-11-15T09:02:12;12.40;99.90
58554;DHT22;48119;53.218;6.576;2022-11-15T09:04:42;12.50;99.90
58554;DHT22;48119;53.218;6.576;2022-11-15T09:07:10;12.40;99.90
58554;DHT22;48119;53.218;6.576;2022-11-15T09:09:38;12.50;99.90
58554;DHT22;48119;53.218;6.576;2022-11-15T09:12:05;12.50;99.90
58554;DHT22;48119;53.218;6.576;2022-11-15T09:14:31;12.50;99.90
58554;DHT22;48119;53.218;6.576;2022-11-15T09:16:57;12.60;99.90
58554;DHT22;48119;53.218;6.576;2022-11-15T09:19:23;12.60;99.90
58554;DHT22;48119;53.218;6.576;2022-11-15T09:21:52;12.60;99.90
58554;DHT22;48119;53.218;6.576;2022-11-15T09:24:18;12.60;99.90
58554;DHT22;48119;53.218;6.576;2022-11-15T09:26:44;12.60;99.90
58554;DHT22;48119;53.218;6.576;2022-11-15T09:29:10;12.70;99.90
58554;DHT22;48119;53.218;6.576;2022-11-15T09:31:38;12.70;99.90
58554;DHT22;48119;53.218;6.576;2022-11-15T09:34:06;12.70;99.90
58554;DHT22;48119;53.218;6.576;2022-11-15T09:36:35;12.70;99.90
58554;DHT22;48119;53.218;6.576;2022-11-15T09:39:15;12.70;99.90
58554;DHT22;48119;53.218;6.576;2022-11-15T09:42:10;12.70;99.90
58554;DHT22;48119;53.218;6.576;2022-11-15T09:47:53;12.70;99.90
58554;DHT22;48119;53.218;6.576;2022-11-15T09:53:03;12.70;99.90
58554;DHT22;48119;53.218;6.576;2022-11-15T09:56:11;12.80;99.90
58554;DHT22;48119;53.218;6.576;2022-11-15T10:01:20;12.80;99.90
58554;DHT22;48119;53.218;6.576;2022-11-15T10:03:49;12.90;99.90
58554;DHT22;48119;53.218;6.576;2022-11-15T10:06:25;12.80;99.90
58554;DHT22;48119;53.218;6.576;2022-11-15T10:09:02;12.90;99.90
58554;DHT22;48119;53.218;6.576;2022-11-15T10:11:32;12.80;99.90
58554;DHT22;48119;53.218;6.576;2022-11-15T10:14:14;12.90;99.90
58554;DHT22;48119;53.218;6.576;2022-11-15T10:22:38;12.90;99.90
58554;DHT22;48119;53.218;6.576;2022-11-15T10:27:34;12.90;99.90
58554;DHT22;48119;53.218;6.576;2022-11-15T10:30:00;12.90;99.90
58554;DHT22;48119;53.218;6.576;2022-11-15T10:32:34;12.90;99.90
58554;DHT22;48119;53.218;6.576;2022-11-15T10:35:27;12.90;99.90
58554;DHT22;48119;53.218;6.576;2022-11-15T10:38:09;12.90;99.90
58554;DHT22;48119;53.218;6.576;2022-11-15T10:40:36;12.90;99.90
58554;DHT22;48119;53.218;6.576;2022-11-15T10:43:15;12.90;99.90
58554;DHT22;48119;53.218;6.576;2022-11-15T10:45:57;12.90;99.90
58554;DHT22;48119;53.218;6.576;2022-11-15T10:48:39;13.00;99.90
58554;DHT22;48119;53.218;6.576;2022-11-15T10:51:39;13.00;99.90
58554;DHT22;48119;53.218;6.576;2022-11-15T10:54:10;13.00;99.90
58554;DHT22;48119;53.218;6.576;2022-11-15T10:56:41;13.00;99.90
58554;DHT22;48119;53.218;6.576;2022-11-15T10:59:31;13.00;99.90
58554;DHT22;48119;53.218;6.576;2022-11-15T11:01:59;13.00;99.90
58554;DHT22;48119;53.218;6.576;2022-11-15T11:04:28;13.00;99.90
58554;DHT22;48119;53.218;6.576;2022-11-15T11:06:56;13.00;99.90
58554;DHT22;48119;53.218;6.576;2022-11-15T11:09:56;13.00;99.90
58554;DHT22;48119;53.218;6.576;2022-11-15T11:12:28;13.00;99.90
58554;DHT22;48119;53.218;6.576;2022-11-15T11:14:55;13.00;99.90
58554;DHT22;48119;53.218;6.576;2022-11-15T11:17:49;13.00;99.90
58554;DHT22;48119;53.218;6.576;2022-11-15T11:31:02;13.00;99.90
58554;DHT22;48119;53.218;6.576;2022-11-15T11:33:40;13.10;99.90
58554;DHT22;48119;53.218;6.576;2022-11-15T11:39:18;13.00;99.90
58554;DHT22;48119;53.218;6.576;2022-11-15T11:42:06;13.00;99.90
58554;DHT22;48119;53.218;6.576;2022-11-15T11:47:35;13.10;99.90
58554;DHT22;48119;53.218;6.576;2022-11-15T11:50:15;13.10;99.90
58554;DHT22;48119;53.218;6.576;2022-11-15T11:53:13;13.10;99.90
58554;DHT22;48119;53.218;6.576;2022-11-15T11:55:51;13.10;99.90
58554;DHT22;48119;53.218;6.576;2022-11-15T11:58:34;13.10;99.90
58554;DHT22;48119;53.218;6.576;2022-11-15T12:01:29;13.10;99.90
58554;DHT22;48119;53.218;6.576;2022-11-15T12:06:42;13.20;99.90
58554;DHT22;48119;53.218;6.576;2022-11-15T12:09:33;13.20;99.90
58554;DHT22;48119;53.218;6.576;2022-11-15T12:12:15;13.20;99.90
58554;DHT22;48119;53.218;6.576;2022-11-15T12:15:04;13.20;99.90
58554;DHT22;48119;53.218;6.576;2022-11-15T12:17:38;13.20;99.90
58554;DHT22;48119;53.218;6.576;2022-11-15T12:20:19;13.20;99.90
58554;DHT22;48119;53.218;6.576;2022-11-15T12:22:54;13.20;99.90
58554;DHT22;48119;53.218;6.576;2022-11-15T12:25:33;13.30;99.90
58554;DHT22;48119;53.218;6.576;2022-11-15T12:30:45;13.30;99.90
58554;DHT22;48119;53.218;6.576;2022-11-15T12:33:37;13.30;99.90
58554;DHT22;48119;53.218;6.576;2022-11-15T12:36:29;13.30;99.90
58554;DHT22;48119;53.218;6.576;2022-11-15T12:39:00;13.20;99.90
58554;DHT22;48119;53.218;6.576;2022-11-15T12:41:34;13.30;99.90
58554;DHT22;48119;53.218;6.576;2022-11-15T12:44:02;13.30;99.90
58554;DHT22;48119;53.218;6.576;2022-11-15T13:02:22;13.30;99.90
58554;DHT22;48119;53.218;6.576;2022-11-15T13:04:55;13.30;99.90
58554;DHT22;48119;53.218;6.576;2022-11-15T13:18:28;13.40;99.90
58554;DHT22;48119;53.218;6.576;2022-11-15T13:20:54;13.40;99.90
58554;DHT22;48119;53.218;6.576;2022-11-15T13:23:21;13.30;99.90
58554;DHT22;48119;53.218;6.576;2022-11-15T13:26:12;13.40;99.90
58554;DHT22;48119;53.218;6.576;2022-11-15T13:31:29;13.40;99.90
58554;DHT22;48119;53.218;6.576;2022-11-15T13:33:59;13.40;99.90
58554;DHT22;48119;53.218;6.576;2022-11-15T13:36:30;13.40;99.90
58554;DHT22;48119;53.218;6.576;2022-11-15T13:39:04;13.40;99.90
58554;DHT22;48119;53.218;6.576;2022-11-15T13:41:36;13.40;99.90
58554;DHT22;48119;53.218;6.576;2022-11-15T13:44:03;13.40;99.90
58554;DHT22;48119;53.218;6.576;2022-11-15T13:46:33;13.40;99.90
58554;DHT22;48119;53.218;6.576;2022-11-15T13:49:00;13.40;99.90
58554;DHT22;48119;53.218;6.576;2022-11-15T13:51:47;13.40;99.90
58554;DHT22;48119;53.218;6.576;2022-11-15T13:59:31;13.30;99.90
58554;DHT22;48119;53.218;6.576;2022-11-15T14:02:02;13.30;99.90
58554;DHT22;48119;53.218;6.576;2022-11-15T14:04:30;13.30;99.90
58554;DHT22;48119;53.218;6.576;2022-11-15T14:07:00;13.30;99.90
58554;DHT22;48119;53.218;6.576;2022-11-15T14:09:31;13.30;99.90
58554;DHT22;48119;53.218;6.576;2022-11-15T14:12:02;13.40;99.90
58554;DHT22;48119;53.218;6.576;2022-11-15T14:14:32;13.30;99.90
58554;DHT22;48119;53.218;6.576;2022-11-15T14:17:00;13.30;99.90
58554;DHT22;48119;53.218;6.576;2022-11-15T14:27:39;13.30;99.90
58554;DHT22;48119;53.218;6.576;2022-11-15T14:30:05;13.30;99.90
58554;DHT22;48119;53.218;6.576;2022-11-15T14:32:49;13.30;99.90
58554;DHT22;48119;53.218;6.576;2022-11-15T14:35:21;13.30;99.90
58554;DHT22;48119;53.218;6.576;2022-11-15T14:37:49;13.30;99.90
58554;DHT22;48119;53.218;6.576;2022-11-15T14:40:21;13.30;99.90
58554;DHT22;48119;53.218;6.576;2022-11-15T14:42:51;13.30;99.90
58554;DHT22;48119;53.218;6.576;2022-11-15T14:45:19;13.30;99.90
58554;DHT22;48119;53.218;6.576;2022-11-15T14:47:46;13.30;99.90
58554;DHT22;48119;53.218;6.576;2022-11-15T14:50:20;13.30;99.90
58554;DHT22;48119;53.218;6.576;2022-11-15T14:52:51;13.20;99.90
58554;DHT22;48119;53.218;6.576;2022-11-15T14:55:27;13.20;99.90
58554;DHT22;48119;53.218;6.576;2022-11-15T14:57:57;13.20;99.90
58554;DHT22;48119;53.218;6.576;2022-11-15T15:00:25;13.20;99.90
58554;DHT22;48119;53.218;6.576;2022-11-15T15:02:55;13.20;99.90
58554;DHT22;48119;53.218;6.576;2022-11-15T15:05:43;13.20;99.90
58554;DHT22;48119;53.218;6.576;2022-11-15T15:08:16;13.20;99.90
58554;DHT22;48119;53.218;6.576;2022-11-15T15:10:45;13.20;99.90
58554;DHT22;48119;53.218;6.576;2022-11-15T15:13:22;13.20;99.90
58554;DHT22;48119;53.218;6.576;2022-11-15T15:15:50;13.20;99.90
58554;DHT22;48119;53.218;6.576;2022-11-15T15:18:19;13.20;99.90
58554;DHT22;48119;53.218;6.576;2022-11-15T15:20:58;13.20;99.90
58554;DHT22;48119;53.218;6.576;2022-11-15T15:23:33;13.20;99.90
58554;DHT22;48119;53.218;6.576;2022-11-15T15:26:19;13.20;99.90
58554;DHT22;48119;53.218;6.576;2022-11-15T15:28:48;13.20;99.90
58554;DHT22;48119;53.218;6.576;2022-11-15T15:31:19;13.20;99.90
58554;DHT22;48119;53.218;6.576;2022-11-15T15:33:45;13.20;99.90
58554;DHT22;48119;53.218;6.576;2022-11-15T15:36:18;13.20;99.90
58554;DHT22;48119;53.218;6.576;2022-11-15T15:38:47;13.20;99.90
58554;DHT22;48119;53.218;6.576;2022-11-15T15:41:14;13.20;99.90
58554;DHT22;48119;53.218;6.576;2022-11-15T15:43:40;13.10;99.90
58554;DHT22;48119;53.218;6.576;2022-11-15T15:46:15;13.10;99.90
58554;DHT22;48119;53.218;6.576;2022-11-15T15:48:41;13.10;99.90
58554;DHT22;48119;53.218;6.576;2022-11-15T15:51:07;13.10;99.90
58554;DHT22;48119;53.218;6.576;2022-11-15T15:53:33;13.00;99.90
58554;DHT22;48119;53.218;6.576;2022-11-15T15:55:59;13.00;99.90
58554;DHT22;48119;53.218;6.576;2022-11-15T15:58:25;13.00;99.90
58554;DHT22;48119;53.218;6.576;2022-11-15T16:00:51;13.00;99.90
58554;DHT22;48119;53.218;6.576;2022-11-15T16:03:19;13.00;99.90
58554;DHT22;48119;53.218;6.576;2022-11-15T16:05:49;13.00;99.90
58554;DHT22;48119;53.218;6.576;2022-11-15T16:08:24;13.00;99.90
58554;DHT22;48119;53.218;6.576;2022-11-15T16:10:55;13.00;99.90
58554;DHT22;48119;53.218;6.576;2022-11-15T16:13:21;13.00;99.90
58554;DHT22;48119;53.218;6.576;2022-11-15T16:15:52;13.00;99.90
58554;DHT22;48119;53.218;6.576;2022-11-15T16:18:18;13.00;99.90
58554;DHT22;48119;53.218;6.576;2022-11-15T16:20:48;13.00;99.90
58554;DHT22;48119;53.218;6.576;2022-11-15T16:23:17;13.00;99.90
58554;DHT22;48119;53.218;6.576;2022-11-15T16:25:51;12.90;99.90
58554;DHT22;48119;53.218;6.576;2022-11-15T16:28:23;12.90;99.90
58554;DHT22;48119;53.218;6.576;2022-11-15T16:30:59;13.00;99.90
58554;DHT22;48119;53.218;6.576;2022-11-15T16:33:26;12.90;99.90
58554;DHT22;48119;53.218;6.576;2022-11-15T16:35:52;13.00;99.90
58554;DHT22;48119;53.218;6.576;2022-11-15T16:38:18;13.00;99.90
58554;DHT22;48119;53.218;6.576;2022-11-15T16:40:44;13.00;99.90
58554;DHT22;48119;53.218;6.576;2022-11-15T16:43:10;12.90;99.90
58554;DHT22;48119;53.218;6.576;2022-11-15T16:45:40;13.00;99.90
58554;DHT22;48119;53.218;6.576;2022-11-15T16:48:24;12.90;99.90
58554;DHT22;48119;53.218;6.576;2022-11-15T16:50:58;12.90;99.90
58554;DHT22;48119;53.218;6.576;2022-11-15T16:53:28;12.90;99.90
58554;DHT22;48119;53.218;6.576;2022-11-15T16:55:54;13.00;99.90
58554;DHT22;48119;53.218;6.576;2022-11-15T16:58:23;13.00;99.90
58554;DHT22;48119;53.218;6.576;2022-11-15T17:00:54;13.00;99.90
58554;DHT22;48119;53.218;6.576;2022-11-15T17:03:23;13.00;99.90
58554;DHT22;48119;53.218;6.576;2022-11-15T17:05:50;13.00;99.90
58554;DHT22;48119;53.218;6.576;2022-11-15T17:08:16;13.00;99.90
58554;DHT22;48119;53.218;6.576;2022-11-15T17:10:42;13.00;99.90
58554;DHT22;48119;53.218;6.576;2022-11-15T17:13:12;13.00;99.90
58554;DHT22;48119;53.218;6.576;2022-11-15T17:15:40;13.00;99.90
58554;DHT22;48119;53.218;6.576;2022-11-15T17:18:12;13.00;99.90
58554;DHT22;48119;53.218;6.576;2022-11-15T17:20:40;13.00;99.90
58554;DHT22;48119;53.218;6.576;2022-11-15T17:23:12;13.00;99.90
58554;DHT22;48119;53.218;6.576;2022-11-15T17:25:38;13.00;99.90
58554;DHT22;48119;53.218;6.576;2022-11-15T17:28:07;13.00;99.90
58554;DHT22;48119;53.218;6.576;2022-11-15T17:30:35;13.00;99.90
58554;DHT22;48119;53.218;6.576;2022-11-15T17:33:01;13.00;99.90
58554;DHT22;48119;53.218;6.576;2022-11-15T17:35:27;13.00;99.90
58554;DHT22;48119;53.218;6.576;2022-11-15T17:37:53;13.00;99.90
58554;DHT22;48119;53.218;6.576;2022-11-15T17:40:22;13.00;99.90
58554;DHT22;48119;53.218;6.576;2022-11-15T17:42:50;13.00;99.90
58554;DHT22;48119;53.218;6.576;2022-11-15T17:45:18;13.00;99.90
58554;DHT22;48119;53.218;6.576;2022-11-15T17:47:46;13.00;99.80
58554;DHT22;48119;53.218;6.576;2022-11-15T17:50:14;13.00;99.70
58554;DHT22;48119;53.218;6.576;2022-11-15T17:52:43;13.00;99.60